createdAt,value
2018-02-23T00:01:28.034Z,6.90
2018-02-23T00:03:55.696Z,6.45
2018-02-23T00:06:23.246Z,7.18
2018-02-23T00:08:50.754Z,3.92
2018-02-23T00:11:18.351Z,8.30
2018-02-23T00:13:45.866Z,6.68
2018-02-23T00:16:13.381Z,6.82
2018-02-23T00:18:40.926Z,6.37
2018-02-23T00:21:08.459Z,7.05
2018-02-23T00:23:36.165Z,7.00
2018-02-23T00:26:03.692Z,6.50
2018-02-23T00:28:31.211Z,7.50
2018-02-23T00:30:58.782Z,8.02
2018-02-23T00:33:26.298Z,6.22
2018-02-23T00:35:53.844Z,8.85
2018-02-23T00:38:21.359Z,6.78
2018-02-23T00:40:48.871Z,6.55
2018-02-23T00:43:17.198Z,7.03
2018-02-23T00:45:44.721Z,9.50
2018-02-23T00:48:12.266Z,8.00
2018-02-23T00:50:39.789Z,7.20
2018-02-23T00:53:07.314Z,6.53
2018-02-23T00:55:34.875Z,6.03
2018-02-23T00:58:02.729Z,7.47
2018-02-23T01:00:30.251Z,9.52
2018-02-23T01:02:57.790Z,7.80
2018-02-23T01:05:25.315Z,6.15
2018-02-23T01:07:52.874Z,7.95
2018-02-23T01:10:20.403Z,6.50
2018-02-23T01:12:47.935Z,8.98
2018-02-23T01:15:15.465Z,7.47
2018-02-23T01:17:43.018Z,7.53
2018-02-23T01:20:10.730Z,7.40
2018-02-23T01:22:38.261Z,8.77
2018-02-23T01:25:05.798Z,9.45
2018-02-23T01:27:33.507Z,8.63
2018-02-23T01:30:01.027Z,6.60
2018-02-23T01:32:28.565Z,7.15
2018-02-23T01:34:56.120Z,5.65
2018-02-23T01:37:23.655Z,7.87
2018-02-23T01:39:51.175Z,8.05
2018-02-23T01:42:19.202Z,8.13
2018-02-23T01:44:46.713Z,8.38
2018-02-23T01:47:14.217Z,8.10
2018-02-23T01:49:41.947Z,8.07
2018-02-23T01:52:09.466Z,7.28
2018-02-23T01:54:37.004Z,6.00
2018-02-23T01:57:04.746Z,7.30
2018-02-23T01:59:32.323Z,7.68
2018-02-23T02:01:59.834Z,7.85
2018-02-23T02:04:27.401Z,8.25
2018-02-23T02:06:54.922Z,8.40
2018-02-23T02:09:22.458Z,7.95
2018-02-23T02:11:50.038Z,7.57
2018-02-23T02:14:17.553Z,7.62
2018-02-23T02:16:45.065Z,8.20
2018-02-23T02:19:13.197Z,8.05
2018-02-23T02:21:40.717Z,8.30
2018-02-23T02:24:08.241Z,7.65
2018-02-23T02:26:36.285Z,6.85
2018-02-23T02:29:03.798Z,8.32
2018-02-23T02:31:31.311Z,7.03
2018-02-23T02:33:59.041Z,8.02
2018-02-23T02:36:26.564Z,9.13
2018-02-23T02:38:54.084Z,8.20
2018-02-23T02:41:21.635Z,8.20
2018-02-23T02:43:49.159Z,7.25
2018-02-23T02:46:16.677Z,8.88
2018-02-23T02:48:44.394Z,8.15
2018-02-23T02:51:11.911Z,8.68
2018-02-23T02:53:39.431Z,7.20
2018-02-23T02:56:07.209Z,7.32
2018-02-23T02:58:34.722Z,10.63
2018-02-23T03:01:02.238Z,9.18
2018-02-23T03:03:29.928Z,7.28
2018-02-23T03:05:57.440Z,6.62
2018-02-23T03:08:24.954Z,9.68
2018-02-23T03:10:52.490Z,7.55
2018-02-23T03:13:19.998Z,9.13
2018-02-23T03:15:47.526Z,8.70
2018-02-23T03:18:15.075Z,8.60
2018-02-23T03:20:42.597Z,8.20
2018-02-23T03:23:10.112Z,8.07
2018-02-23T03:25:37.674Z,8.38
2018-02-23T03:28:05.181Z,6.15
2018-02-23T03:30:32.695Z,7.75
2018-02-23T03:33:00.238Z,9.60
2018-02-23T03:35:27.759Z,8.82
2018-02-23T03:37:55.284Z,7.22
2018-02-23T03:40:22.821Z,7.70
2018-02-23T03:42:50.333Z,8.10
2018-02-23T03:45:17.844Z,8.40
2018-02-23T03:47:46.351Z,9.75
2018-02-23T03:50:14.030Z,6.35
2018-02-23T03:52:41.693Z,8.38
2018-02-23T03:55:09.239Z,6.80
2018-02-23T03:57:36.843Z,10.20
2018-02-23T04:00:04.357Z,8.32
2018-02-23T04:02:31.899Z,9.05
2018-02-23T04:04:59.414Z,5.72
2018-02-23T04:07:26.931Z,8.48
2018-02-23T04:09:54.470Z,9.45
2018-02-23T04:12:21.997Z,10.40
2018-02-23T04:14:49.532Z,7.82
2018-02-23T04:17:17.087Z,7.45
2018-02-23T04:19:44.602Z,8.10
2018-02-23T04:22:12.110Z,8.40
2018-02-23T04:24:39.650Z,8.27
2018-02-23T04:27:07.153Z,8.45
2018-02-23T04:29:34.674Z,9.30
2018-02-23T04:32:02.218Z,7.82
2018-02-23T04:34:29.729Z,8.70
2018-02-23T04:36:57.249Z,8.60
2018-02-23T04:39:25.112Z,9.68
2018-02-23T04:41:52.635Z,10.18
2018-02-23T04:44:20.150Z,7.55
2018-02-23T04:46:47.694Z,6.82
2018-02-23T04:49:15.258Z,9.18
2018-02-23T04:51:42.759Z,9.00
2018-02-23T04:54:10.317Z,9.90
2018-02-23T04:56:37.847Z,10.65
2018-02-23T04:59:05.373Z,11.52
2018-02-23T05:01:32.937Z,7.00
2018-02-23T05:04:00.462Z,9.93
2018-02-23T05:06:27.973Z,10.40
2018-02-23T05:08:55.521Z,10.65
2018-02-23T05:11:23.041Z,10.38
2018-02-23T05:13:50.563Z,10.10
2018-02-23T05:16:18.620Z,12.48
2018-02-23T05:18:46.135Z,9.60
2018-02-23T05:21:13.655Z,8.80
2018-02-23T05:23:41.197Z,7.85
2018-02-23T05:26:08.718Z,10.25
2018-02-23T05:28:36.241Z,11.52
2018-02-23T05:31:03.790Z,11.12
2018-02-23T05:33:31.316Z,11.75
2018-02-23T05:35:58.849Z,10.50
2018-02-23T05:38:26.392Z,12.70
2018-02-23T05:40:53.917Z,12.43
2018-02-23T05:43:21.442Z,11.93
2018-02-23T05:45:48.981Z,10.90
2018-02-23T05:48:16.502Z,12.35
2018-02-23T05:50:44.025Z,11.05
2018-02-23T05:53:11.582Z,11.15
2018-02-23T05:55:39.109Z,11.38
2018-02-23T05:58:06.635Z,8.60
2018-02-23T06:00:34.178Z,10.75
2018-02-23T06:03:01.713Z,11.82
2018-02-23T06:05:29.257Z,11.80
2018-02-23T06:07:56.805Z,13.35
2018-02-23T06:10:24.328Z,12.95
2018-02-23T06:12:51.852Z,11.60
2018-02-23T06:15:19.389Z,9.43
2018-02-23T06:17:52.460Z,12.20
2018-02-23T06:20:25.680Z,11.32
2018-02-23T06:22:53.226Z,10.80
2018-02-23T06:25:20.750Z,13.30
2018-02-23T06:27:48.402Z,15.40
2018-02-23T06:30:15.918Z,14.00
2018-02-23T06:32:43.452Z,10.98
2018-02-23T06:35:10.994Z,11.82
2018-02-23T06:37:38.900Z,10.68
2018-02-23T06:40:06.422Z,10.95
2018-02-23T06:42:34.301Z,11.70
2018-02-23T06:45:01.822Z,11.60
2018-02-23T06:47:29.342Z,12.18
2018-02-23T06:49:56.886Z,10.45
2018-02-23T06:52:24.421Z,14.82
2018-02-23T06:54:51.946Z,12.25
2018-02-23T06:57:19.499Z,12.75
2018-02-23T06:59:47.019Z,9.95
2018-02-23T07:02:14.583Z,12.60
2018-02-23T07:04:42.166Z,11.57
2018-02-23T07:07:09.701Z,10.93
2018-02-23T07:09:37.236Z,11.35
2018-02-23T07:12:04.786Z,11.63
2018-02-23T07:14:32.311Z,14.02
2018-02-23T07:16:59.849Z,12.57
2018-02-23T07:19:28.327Z,11.18
2018-02-23T07:21:55.849Z,11.60
2018-02-23T07:24:23.382Z,13.80
2018-02-23T07:26:50.934Z,12.70
2018-02-23T07:29:18.468Z,12.70
2018-02-23T07:31:46.022Z,12.93
2018-02-23T07:34:13.562Z,11.00
2018-02-23T07:36:41.073Z,12.93
2018-02-23T07:39:08.597Z,12.73
2018-02-23T07:41:36.143Z,12.98
2018-02-23T07:44:03.666Z,9.93
2018-02-23T07:46:31.185Z,13.60
2018-02-23T07:48:58.773Z,13.48
2018-02-23T07:51:26.287Z,14.80
2018-02-23T07:53:53.810Z,13.62
2018-02-23T07:56:21.391Z,12.77
2018-02-23T07:58:48.918Z,12.23
2018-02-23T08:01:16.446Z,14.43
2018-02-23T08:03:43.989Z,13.02
2018-02-23T08:06:11.527Z,11.52
2018-02-23T08:08:39.050Z,14.55
2018-02-23T08:11:06.635Z,13.52
2018-02-23T08:13:34.170Z,14.02
2018-02-23T08:16:01.704Z,15.60
2018-02-23T08:18:29.253Z,15.88
2018-02-23T08:20:56.777Z,14.60
2018-02-23T08:23:24.358Z,14.68
2018-02-23T08:25:51.912Z,15.48
2018-02-23T08:28:19.461Z,14.02
2018-02-23T08:30:46.978Z,14.77
2018-02-23T08:33:14.779Z,9.70
2018-02-23T08:35:42.297Z,14.95
2018-02-23T08:38:09.815Z,14.45
2018-02-23T08:40:37.422Z,12.82
2018-02-23T08:43:04.946Z,15.18
2018-02-23T08:45:32.474Z,13.85
2018-02-23T08:48:00.027Z,15.00
2018-02-23T08:50:27.593Z,15.10
2018-02-23T08:52:55.115Z,16.17
2018-02-23T08:55:23.017Z,14.38
2018-02-23T08:57:50.537Z,14.98
2018-02-23T09:00:19.992Z,11.55
2018-02-23T09:02:47.620Z,15.13
2018-02-23T09:05:15.130Z,15.25
2018-02-23T09:07:42.653Z,12.73
2018-02-23T09:10:10.409Z,12.40
2018-02-23T09:12:37.940Z,15.15
2018-02-23T09:15:05.480Z,15.05
2018-02-23T09:17:33.037Z,12.85
2018-02-23T09:20:00.561Z,14.95
2018-02-23T09:22:28.081Z,9.23
2018-02-23T09:24:55.638Z,16.73
2018-02-23T09:27:23.154Z,15.38
2018-02-23T09:29:50.670Z,15.30
2018-02-23T09:32:20.818Z,16.92
2018-02-23T09:34:48.333Z,15.77
2018-02-23T09:37:15.854Z,16.30
2018-02-23T09:39:43.403Z,12.43
2018-02-23T09:42:10.923Z,11.27
2018-02-23T09:44:38.718Z,16.35
2018-02-23T09:47:06.287Z,17.65
2018-02-23T09:49:33.797Z,16.23
2018-02-23T09:52:01.338Z,12.60
2018-02-23T09:54:28.886Z,17.95
2018-02-23T09:56:56.452Z,14.95
2018-02-23T09:59:24.018Z,13.35
2018-02-23T10:01:51.536Z,14.38
2018-02-23T10:04:19.085Z,17.52
2018-02-23T10:06:46.604Z,16.90
2018-02-23T10:09:14.178Z,19.15
2018-02-23T10:11:41.776Z,16.77
2018-02-23T10:14:09.539Z,17.73
2018-02-23T10:16:37.123Z,20.70
2018-02-23T10:19:05.478Z,17.10
2018-02-23T10:21:33.652Z,17.58
2018-02-23T10:24:01.518Z,15.63
2018-02-23T10:26:29.086Z,19.75
2018-02-23T10:28:58.482Z,16.87
2018-02-23T10:31:26.143Z,17.00
2018-02-23T10:33:54.418Z,14.10
2018-02-23T10:36:25.936Z,17.20
2018-02-23T10:38:53.837Z,14.23
2018-02-23T10:41:21.715Z,16.08
2018-02-23T10:43:49.258Z,18.20
2018-02-23T10:46:18.153Z,19.25
2018-02-23T10:48:45.956Z,17.75
2018-02-23T10:51:13.785Z,17.27
2018-02-23T10:53:41.375Z,19.98
2018-02-23T10:56:08.889Z,19.40
2018-02-23T10:58:36.402Z,14.15
2018-02-23T11:01:03.979Z,19.58
2018-02-23T11:03:31.737Z,19.75
2018-02-23T11:05:59.543Z,19.65
2018-02-23T11:08:27.312Z,18.20
2018-02-23T11:10:54.862Z,18.50
2018-02-23T11:13:22.485Z,19.48
2018-02-23T11:15:50.093Z,18.12
2018-02-23T11:18:17.757Z,17.83
2018-02-23T11:20:45.418Z,19.70
2018-02-23T11:23:12.979Z,15.45
2018-02-23T11:25:40.518Z,14.85
2018-02-23T11:28:08.108Z,20.70
2018-02-23T11:30:35.618Z,19.33
2018-02-23T11:33:03.246Z,16.80
2018-02-23T11:35:30.918Z,18.83
2018-02-23T11:37:58.438Z,20.15
2018-02-23T11:40:25.995Z,15.45
2018-02-23T11:42:53.514Z,22.95
2018-02-23T11:45:21.128Z,14.77
2018-02-23T11:47:48.690Z,19.75
2018-02-23T11:50:16.237Z,14.98
2018-02-23T11:52:43.770Z,16.05
2018-02-23T11:55:11.307Z,18.75
2018-02-23T11:57:44.768Z,20.62
2018-02-23T12:00:12.281Z,17.52
2018-02-23T12:02:40.786Z,14.00
2018-02-23T12:05:08.373Z,19.45
2018-02-23T12:07:36.113Z,20.15
2018-02-23T12:10:03.694Z,18.15
2018-02-23T12:12:31.382Z,18.05
2018-02-23T12:14:59.172Z,18.35
2018-02-23T12:17:26.843Z,17.83
2018-02-23T12:19:54.721Z,19.83
2018-02-23T12:22:23.408Z,19.70
2018-02-23T12:24:51.376Z,17.85
2018-02-23T12:27:19.344Z,18.98
2018-02-23T12:29:47.417Z,18.60
2018-02-23T12:32:15.002Z,19.52
2018-02-23T12:34:42.844Z,18.85
2018-02-23T12:37:10.385Z,19.23
2018-02-23T12:39:38.149Z,15.27
2018-02-23T12:42:05.802Z,20.08
2018-02-23T12:44:33.525Z,21.52
2018-02-23T12:47:01.431Z,22.13
2018-02-23T12:49:28.984Z,19.30
2018-02-23T12:51:56.757Z,19.55
2018-02-23T12:54:24.647Z,19.90
2018-02-23T12:56:52.448Z,19.33
2018-02-23T12:59:20.461Z,22.42
2018-02-23T13:01:48.266Z,21.23
2018-02-23T13:04:16.115Z,19.62
2018-02-23T13:06:44.013Z,21.80
2018-02-23T13:09:12.051Z,23.67
2018-02-23T13:11:40.948Z,21.20
2018-02-23T13:14:09.386Z,20.35
2018-02-23T13:16:37.392Z,17.92
2018-02-23T13:19:05.258Z,19.75
2018-02-23T13:21:33.328Z,21.10
2018-02-23T13:24:01.101Z,22.27
2018-02-23T13:26:29.123Z,17.75
2018-02-23T13:28:57.124Z,21.77
2018-02-23T13:31:25.923Z,20.00
2018-02-23T13:33:54.149Z,19.80
2018-02-23T13:36:21.933Z,21.65
2018-02-23T13:38:50.754Z,22.73
2018-02-23T13:41:24.290Z,20.85
2018-02-23T13:43:52.319Z,21.60
2018-02-23T13:46:20.253Z,21.60
2018-02-23T13:48:48.044Z,21.98
2018-02-23T13:51:16.190Z,20.77
2018-02-23T13:53:45.935Z,23.20
2018-02-23T13:56:13.768Z,17.37
2018-02-23T13:58:41.567Z,20.37
2018-02-23T14:01:09.330Z,20.02
2018-02-23T14:03:37.591Z,20.12
2018-02-23T14:06:05.383Z,22.27
2018-02-23T14:08:33.133Z,20.58
2018-02-23T14:11:00.898Z,18.77
2018-02-23T14:13:28.735Z,22.17
2018-02-23T14:15:56.534Z,22.65
2018-02-23T14:18:24.600Z,22.10
2018-02-23T14:20:52.475Z,21.15
2018-02-23T14:23:20.666Z,14.30
2018-02-23T14:25:48.531Z,21.52
2018-02-23T14:28:16.485Z,19.65
2018-02-23T14:30:44.727Z,22.02
2018-02-23T14:33:12.825Z,20.75
2018-02-23T14:35:41.719Z,18.98
2018-02-23T14:38:09.479Z,20.50
2018-02-23T14:40:37.398Z,21.25
2018-02-23T14:43:05.314Z,19.48
2018-02-23T14:45:33.180Z,17.52
2018-02-23T14:48:01.641Z,19.75
2018-02-23T14:53:38.720Z,19.30
2018-02-23T14:56:06.731Z,18.67
2018-02-23T14:58:34.680Z,17.62
2018-02-23T15:01:02.945Z,15.93
2018-02-23T15:03:30.540Z,20.90
2018-02-23T15:05:58.425Z,20.12
2018-02-23T15:08:26.404Z,17.48
2018-02-23T15:10:54.545Z,20.25
2018-02-23T15:13:22.409Z,23.25
2018-02-23T15:15:50.378Z,21.33
2018-02-23T15:18:18.579Z,20.00
2018-02-23T15:20:46.445Z,18.95
2018-02-23T15:23:14.713Z,19.67
2018-02-23T15:25:42.664Z,20.62
2018-02-23T15:28:10.848Z,18.08
2018-02-23T15:30:50.890Z,19.58
2018-02-23T15:33:18.775Z,21.77
2018-02-23T15:35:46.378Z,19.00
2018-02-23T15:38:14.286Z,20.33
2018-02-23T15:40:42.357Z,18.73
2018-02-23T15:43:10.302Z,19.95
2018-02-23T15:45:38.980Z,20.23
2018-02-23T15:48:12.508Z,18.35
2018-02-23T15:50:45.905Z,24.00
2018-02-23T15:53:13.790Z,25.67
2018-02-23T15:55:42.355Z,21.60
2018-02-23T15:58:15.877Z,21.73
2018-02-23T16:00:43.824Z,22.35
2018-02-23T16:03:11.789Z,18.52
2018-02-23T16:05:39.759Z,21.95
2018-02-23T16:08:07.526Z,18.08
2018-02-23T16:10:35.656Z,20.20
2018-02-23T16:13:03.523Z,18.45
2018-02-23T16:15:31.942Z,18.73
2018-02-23T16:18:00.403Z,18.67
2018-02-23T16:20:28.701Z,18.70
2018-02-23T16:22:57.281Z,18.62
2018-02-23T16:25:25.064Z,18.70
2018-02-23T16:27:53.322Z,20.27
2018-02-23T16:30:21.263Z,25.52
2018-02-23T16:32:49.076Z,39.13
2018-02-23T16:35:17.330Z,33.83
2018-02-23T16:37:45.526Z,23.40
2018-02-23T16:40:13.881Z,16.75
2018-02-23T16:42:41.851Z,23.65
2018-02-23T16:45:10.538Z,21.35
2018-02-23T16:47:38.608Z,21.62
2018-02-23T16:50:06.475Z,18.17
2018-02-23T16:52:34.444Z,19.17
2018-02-23T16:55:04.563Z,19.83
2018-02-23T16:57:32.325Z,19.75
2018-02-23T17:00:00.296Z,20.67
2018-02-23T17:02:31.651Z,19.98
2018-02-23T17:04:59.613Z,20.65
2018-02-23T17:07:27.901Z,20.25
2018-02-23T17:09:56.370Z,19.77
2018-02-23T17:12:24.418Z,21.10
2018-02-23T17:14:52.308Z,22.67
2018-02-23T17:17:20.995Z,14.15
2018-02-23T17:19:48.963Z,19.00
2018-02-23T17:22:16.930Z,20.17
2018-02-23T17:24:44.901Z,17.95
2018-02-23T17:27:12.867Z,16.10
2018-02-23T17:29:40.837Z,20.35
2018-02-23T17:32:08.909Z,20.48
2018-02-23T17:34:36.879Z,21.40
2018-02-23T17:37:04.747Z,17.08
2018-02-23T17:39:32.612Z,19.70
2018-02-23T17:42:00.475Z,18.90
2018-02-23T17:44:28.347Z,21.25
2018-02-23T17:46:56.317Z,20.75
2018-02-23T17:49:24.177Z,20.17
2018-02-23T17:51:52.408Z,22.83
2018-02-23T17:54:21.055Z,22.35
2018-02-23T17:56:49.008Z,17.33
2018-02-23T17:59:16.769Z,20.45
2018-02-23T18:01:44.636Z,19.52
2018-02-23T18:04:12.707Z,20.77
2018-02-23T18:06:40.677Z,19.12
2018-02-23T18:09:08.543Z,18.27
2018-02-23T18:11:36.306Z,18.33
2018-02-23T18:14:04.176Z,18.37
2018-02-23T18:16:31.992Z,19.17
2018-02-23T18:18:59.918Z,17.77
2018-02-23T18:21:27.731Z,16.58
2018-02-23T18:23:55.573Z,18.50
2018-02-23T18:26:23.300Z,19.27
2018-02-23T18:28:51.270Z,20.65
2018-02-23T18:31:19.723Z,20.70
2018-02-23T18:33:47.616Z,21.90
2018-02-23T18:36:15.389Z,22.80
2018-02-23T18:38:43.246Z,20.83
2018-02-23T18:41:11.216Z,17.95
2018-02-23T18:43:38.990Z,16.75
2018-02-23T18:46:06.744Z,18.48
2018-02-23T18:48:34.889Z,17.80
2018-02-23T18:51:02.538Z,18.48
2018-02-23T18:53:30.649Z,19.55
2018-02-23T18:55:59.541Z,16.33
2018-02-23T18:58:27.407Z,17.85
2018-02-23T19:00:55.245Z,18.65
2018-02-23T19:03:23.037Z,17.37
2018-02-23T19:05:51.211Z,18.52
2018-02-23T19:08:19.180Z,17.25
2018-02-23T19:10:47.186Z,15.90
2018-02-23T19:13:15.354Z,16.95
2018-02-23T19:15:43.469Z,16.58
2018-02-23T19:18:11.861Z,17.80
2018-02-23T19:20:39.741Z,15.35
2018-02-23T19:23:07.608Z,17.37
2018-02-23T19:25:35.474Z,16.08
2018-02-23T19:28:03.630Z,15.25
2018-02-23T19:30:31.520Z,13.93
2018-02-23T19:32:59.279Z,14.02
2018-02-23T19:35:27.180Z,18.30
2018-02-23T19:37:55.114Z,16.05
2018-02-23T19:40:23.185Z,16.30
2018-02-23T19:42:51.460Z,17.05
2018-02-23T19:45:19.298Z,19.58
2018-02-23T19:47:46.988Z,19.92
2018-02-23T19:50:14.695Z,25.08
2018-02-23T19:52:42.620Z,23.25
2018-02-23T19:55:10.691Z,22.65
2018-02-23T19:57:38.763Z,21.42
2018-02-23T20:00:06.401Z,20.58
2018-02-23T20:02:35.213Z,18.83
2018-02-23T20:05:02.810Z,16.73
2018-02-23T20:07:30.739Z,19.35
2018-02-23T20:09:58.346Z,19.85
2018-02-23T20:12:26.165Z,18.52
2018-02-23T20:14:53.974Z,19.70
2018-02-23T20:17:21.690Z,19.35
2018-02-23T20:19:50.584Z,20.00
2018-02-23T20:22:20.411Z,18.70
2018-02-23T20:24:48.127Z,19.25
2018-02-23T20:27:16.027Z,21.10
2018-02-23T20:29:44.671Z,18.92
2018-02-23T20:32:13.156Z,19.92
2018-02-23T20:34:41.058Z,18.92
2018-02-23T20:37:08.926Z,18.83
2018-02-23T20:39:36.792Z,20.88
2018-02-23T20:42:04.659Z,18.58
2018-02-23T20:44:33.141Z,18.08
2018-02-23T20:47:01.006Z,20.98
2018-02-23T20:49:29.078Z,20.65
2018-02-23T20:51:56.963Z,21.83
2018-02-23T20:54:24.882Z,14.52
2018-02-23T20:56:52.980Z,22.58
2018-02-23T20:59:21.262Z,22.25
2018-02-23T21:01:49.127Z,21.02
2018-02-23T21:04:17.205Z,21.30
2018-02-23T21:06:45.272Z,21.00
2018-02-23T21:09:13.445Z,18.60
2018-02-23T21:11:41.514Z,21.05
2018-02-23T21:14:09.791Z,20.08
2018-02-23T21:16:38.190Z,20.73
2018-02-23T21:19:06.034Z,20.00
2018-02-23T21:21:34.517Z,22.00
2018-02-23T21:24:02.381Z,22.77
2018-02-23T21:26:30.761Z,22.48
2018-02-23T21:28:58.729Z,23.48
2018-02-23T21:31:27.006Z,22.02
2018-02-23T21:33:55.179Z,26.12
2018-02-23T21:36:22.942Z,21.75
2018-02-23T21:38:50.531Z,22.05
2018-02-23T21:41:18.472Z,24.20
2018-02-23T21:43:46.337Z,22.33
2018-02-23T21:46:14.105Z,21.20
2018-02-23T21:48:42.439Z,21.98
2018-02-23T21:51:10.345Z,20.60
2018-02-23T21:53:38.212Z,23.25
2018-02-23T21:56:06.141Z,21.80
2018-02-23T21:58:34.037Z,23.40
2018-02-23T22:01:01.913Z,17.35
2018-02-23T22:03:29.678Z,18.35
2018-02-23T22:05:57.442Z,21.60
2018-02-23T22:08:25.206Z,20.48
2018-02-23T22:10:53.278Z,22.08
2018-02-23T22:13:21.082Z,22.75
2018-02-23T22:15:48.678Z,19.77
2018-02-23T22:18:16.390Z,23.50
2018-02-23T22:20:43.985Z,20.77
2018-02-23T22:23:11.926Z,21.20
2018-02-23T22:25:39.457Z,19.80
2018-02-23T22:28:07.185Z,20.98
2018-02-23T22:30:34.789Z,18.80
2018-02-23T22:33:02.333Z,21.70
2018-02-23T22:35:30.815Z,17.87
2018-02-23T22:37:58.555Z,20.12
2018-02-23T22:40:26.067Z,23.10
2018-02-23T22:42:53.614Z,18.73
2018-02-23T22:45:21.124Z,19.10
2018-02-23T22:47:48.702Z,20.65
2018-02-23T22:50:16.247Z,21.90
2018-02-23T22:52:43.792Z,21.15
2018-02-23T22:55:11.358Z,21.80
2018-02-23T22:57:38.873Z,22.95
2018-02-23T23:00:07.458Z,21.80
2018-02-23T23:02:34.989Z,22.15
2018-02-23T23:05:02.506Z,21.10
2018-02-23T23:07:30.068Z,22.42
2018-02-23T23:09:57.588Z,20.12
2018-02-23T23:12:25.309Z,23.92
2018-02-23T23:14:52.889Z,23.02
2018-02-23T23:17:20.617Z,22.17
2018-02-23T23:19:48.281Z,20.60
2018-02-23T23:22:15.808Z,21.30
2018-02-23T23:24:43.356Z,22.40
2018-02-23T23:27:11.702Z,16.65
2018-02-23T23:29:39.223Z,22.62
2018-02-23T23:32:06.830Z,21.75
2018-02-23T23:34:34.360Z,23.20
2018-02-23T23:37:02.151Z,22.73
2018-02-23T23:39:31.618Z,22.17
2018-02-23T23:42:00.132Z,20.52
2018-02-23T23:44:27.693Z,20.75
2018-02-23T23:46:55.225Z,21.05
2018-02-23T23:49:23.192Z,18.40
2018-02-23T23:51:50.718Z,19.37
2018-02-23T23:54:18.262Z,19.98
2018-02-23T23:56:45.808Z,21.02
2018-02-23T23:59:13.322Z,21.77
